Time;durP1;ratioP1;P1;durP2;ratioP2;P2;SDS_P1;SDS_P2;PMS_P1;PMS_P2;Temp;Humidity;BMP_temperature;BMP_pressure;BME280_temperature;BME280_humidity;BME280_pressure;Samples;Min_cycle;Max_cycle;Signal;HPM_P1;HPM_P2
2023/05/06 00:00:04;;;;;;;10.52;9.00;;;11.80;99.90;;;;;;4984104;28;20046;-76
2023/05/06 00:02:30;;;;;;;9.82;7.90;;;11.80;99.90;;;;;;4986394;28;20054;-76
2023/05/06 00:04:56;;;;;;;12.88;8.13;;;11.90;99.90;;;;;;4986600;28;20713;-76
2023/05/06 00:07:21;;;;;;;11.00;8.88;;;11.80;99.90;;;;;;4980121;28;20047;-76
2023/05/06 00:09:47;;;;;;;8.43;7.60;;;11.80;99.90;;;;;;4981281;28;20084;-76
2023/05/06 00:12:13;;;;;;;10.50;8.65;;;11.80;99.90;;;;;;4977952;28;20054;-76
2023/05/06 00:14:39;;;;;;;10.40;9.13;;;11.80;99.90;;;;;;4983033;28;20038;-76
2023/05/06 00:17:05;;;;;;;12.25;9.48;;;11.80;99.90;;;;;;4988478;28;20399;-76
2023/05/06 00:19:31;;;;;;;15.23;10.15;;;11.80;99.90;;;;;;4986699;28;20065;-76
2023/05/06 00:21:57;;;;;;;10.90;8.95;;;11.80;99.90;;;;;;4982840;28;20112;-76
2023/05/06 00:24:22;;;;;;;13.15;9.43;;;11.80;99.90;;;;;;4985816;28;20141;-76
2023/05/06 00:26:48;;;;;;;9.13;8.23;;;11.70;99.90;;;;;;4987745;28;20065;-76
2023/05/06 00:29:13;;;;;;;11.73;9.55;;;11.70;99.90;;;;;;4982034;28;20050;-76
2023/05/06 00:31:40;;;;;;;12.10;8.77;;;11.70;99.90;;;;;;4980930;28;20499;-76
2023/05/06 00:34:05;;;;;;;9.57;8.43;;;11.60;99.90;;;;;;4987633;28;20070;-76
2023/05/06 00:36:31;;;;;;;10.32;8.30;;;11.60;99.90;;;;;;4987203;28;20057;-76
2023/05/06 00:38:57;;;;;;;11.80;9.48;;;11.50;99.90;;;;;;4982478;28;20050;-76
2023/05/06 00:41:22;;;;;;;10.40;8.95;;;11.40;99.90;;;;;;4985887;28;20054;-77
2023/05/06 00:43:48;;;;;;;10.65;7.97;;;11.50;99.90;;;;;;4986770;28;20062;-77
2023/05/06 00:46:15;;;;;;;11.68;9.98;;;11.40;99.90;;;;;;4987449;28;20491;-76
2023/05/06 00:48:43;;;;;;;11.50;8.52;;;11.40;99.90;;;;;;4982021;28;20050;-76
2023/05/06 00:51:09;;;;;;;9.70;8.70;;;11.30;99.90;;;;;;4990301;28;20134;-76
2023/05/06 00:53:35;;;;;;;9.60;7.68;;;11.20;99.90;;;;;;4977251;28;20049;-76
2023/05/06 00:56:01;;;;;;;9.45;7.30;;;11.20;99.90;;;;;;4986180;28;20411;-76
2023/05/06 00:58:26;;;;;;;7.93;7.22;;;11.20;99.90;;;;;;4986864;28;20039;-77
2023/05/06 01:00:55;;;;;;;7.30;6.47;;;11.10;99.90;;;;;;4990415;28;20038;-76
2023/05/06 01:03:21;;;;;;;11.07;6.68;;;11.10;99.90;;;;;;4989446;28;20591;-76
2023/05/06 01:06:26;;;;;;;12.13;7.13;;;11.00;99.90;;;;;;4981683;28;20043;-76
2023/05/06 01:09:22;;;;;;;11.30;9.77;;;11.00;99.90;;;;;;4916498;29;20122;-76
2023/05/06 01:12:16;;;;;;;12.07;10.57;;;10.90;99.90;;;;;;4932625;29;20057;-76
2023/05/06 01:15:15;;;;;;;12.95;10.25;;;10.80;99.90;;;;;;4973972;28;20629;-76
2023/05/06 01:17:43;;;;;;;11.80;9.57;;;10.80;99.90;;;;;;4948749;28;20058;-76
2023/05/06 01:20:10;;;;;;;13.82;10.55;;;10.70;99.90;;;;;;4984446;28;20055;-76
2023/05/06 01:22:38;;;;;;;12.15;9.60;;;10.70;99.90;;;;;;4985748;28;20853;-76
2023/05/06 01:25:05;;;;;;;12.38;10.30;;;10.70;99.90;;;;;;4991338;28;20129;-76
2023/05/06 01:27:30;;;;;;;12.98;10.25;;;10.60;99.90;;;;;;4984966;28;20050;-77
2023/05/06 01:29:57;;;;;;;14.20;11.35;;;10.70;99.90;;;;;;4981884;28;20077;-76
2023/05/06 01:32:44;;;;;;;11.65;9.73;;;10.60;99.90;;;;;;4985804;28;20623;-76
2023/05/06 01:35:34;;;;;;;13.90;9.63;;;10.60;99.90;;;;;;4988704;28;20062;-76
2023/05/06 01:38:14;;;;;;;10.75;9.23;;;10.60;99.90;;;;;;4987200;28;20492;-76
2023/05/06 01:40:41;;;;;;;17.33;10.75;;;10.50;99.90;;;;;;4990345;28;20085;-76
2023/05/06 01:43:07;;;;;;;15.52;12.68;;;10.50;99.90;;;;;;4989804;28;20042;-76
2023/05/06 01:45:35;;;;;;;15.52;12.73;;;10.50;99.90;;;;;;4978885;28;20042;-76
2023/05/06 01:48:01;;;;;;;17.45;12.98;;;10.50;99.90;;;;;;4984551;28;20129;-76
2023/05/06 01:50:27;;;;;;;15.43;13.60;;;10.50;99.90;;;;;;4986466;28;20050;-76
2023/05/06 01:53:01;;;;;;;17.55;14.07;;;10.50;99.90;;;;;;4977981;28;20094;-76
2023/05/06 01:55:27;;;;;;;17.38;15.43;;;10.50;99.90;;;;;;4989492;28;20046;-77
2023/05/06 01:57:55;;;;;;;16.65;13.40;;;10.50;99.90;;;;;;4984036;28;20722;-76
2023/05/06 02:00:21;;;;;;;16.45;11.88;;;10.50;99.90;;;;;;4983604;28;20050;-76
2023/05/06 02:02:46;;;;;;;12.27;10.13;;;10.50;99.90;;;;;;4984686;28;20046;-76
2023/05/06 02:05:12;;;;;;;12.40;10.45;;;10.50;99.90;;;;;;4985140;28;20043;-76
2023/05/06 02:07:37;;;;;;;9.18;7.55;;;10.50;99.90;;;;;;4988349;28;20074;-76
2023/05/06 02:10:04;;;;;;;8.63;7.78;;;10.50;99.90;;;;;;4990330;28;20483;-76
2023/05/06 02:12:29;;;;;;;10.20;9.20;;;10.50;99.90;;;;;;4989469;28;20150;-76
2023/05/06 02:14:55;;;;;;;13.52;10.57;;;10.40;99.90;;;;;;4983239;28;20063;-76
2023/05/06 02:17:21;;;;;;;13.30;10.40;;;10.40;99.90;;;;;;4983724;28;20057;-76
2023/05/06 02:19:46;;;;;;;8.30;7.55;;;10.40;99.90;;;;;;4990373;28;20133;-77
2023/05/06 02:22:12;;;;;;;7.00;6.30;;;10.40;99.90;;;;;;4987130;28;20118;-76
2023/05/06 02:24:37;;;;;;;12.65;11.35;;;10.30;99.90;;;;;;4985769;28;20395;-76
2023/05/06 02:27:03;;;;;;;14.65;11.85;;;10.30;99.90;;;;;;4989426;28;20150;-76
2023/05/06 02:29:29;;;;;;;11.98;10.75;;;10.30;99.90;;;;;;4987581;28;20492;-76
2023/05/06 02:31:54;;;;;;;16.23;11.07;;;10.20;99.90;;;;;;4979520;28;20038;-76
2023/05/06 02:34:20;;;;;;;7.68;6.97;;;10.20;99.90;;;;;;4987338;28;20062;-76
2023/05/06 02:36:46;;;;;;;9.52;5.90;;;10.20;99.90;;;;;;4984346;28;20051;-76
2023/05/06 02:39:11;;;;;;;6.72;6.03;;;10.10;99.90;;;;;;4989401;28;20042;-76
2023/05/06 02:41:37;;;;;;;11.45;5.47;;;10.00;99.90;;;;;;4987733;28;20085;-76
2023/05/06 02:44:09;;;;;;;6.05;5.50;;;10.00;99.90;;;;;;4988992;28;20050;-76
2023/05/06 02:46:34;;;;;;;6.05;5.55;;;9.90;99.90;;;;;;4976607;28;20089;-76
2023/05/06 02:49:00;;;;;;;4.88;4.13;;;10.00;99.90;;;;;;4988549;28;20082;-76
2023/05/06 02:51:26;;;;;;;5.65;5.13;;;9.90;99.90;;;;;;4987447;28;20137;-76
2023/05/06 02:53:52;;;;;;;5.32;4.60;;;9.70;99.90;;;;;;4978223;28;20150;-76
2023/05/06 02:56:17;;;;;;;4.55;4.15;;;9.60;99.90;;;;;;4987954;28;20054;-76
2023/05/06 02:58:43;;;;;;;6.22;5.72;;;9.60;99.90;;;;;;4983558;28;20042;-76
2023/05/06 03:01:09;;;;;;;7.63;5.65;;;9.60;99.90;;;;;;4981845;28;20038;-76
2023/05/06 03:03:34;;;;;;;5.90;5.40;;;9.60;99.90;;;;;;4984911;28;20104;-76
2023/05/06 03:06:00;;;;;;;8.82;7.65;;;9.60;99.90;;;;;;4988937;28;20049;-76
2023/05/06 03:08:26;;;;;;;9.80;8.45;;;9.50;99.90;;;;;;4987716;28;20053;-76
2023/05/06 03:10:51;;;;;;;10.90;9.80;;;9.50;99.90;;;;;;4986815;28;20042;-76
2023/05/06 03:13:20;;;;;;;15.98;11.75;;;9.50;99.90;;;;;;4987859;28;20046;-76
2023/05/06 03:15:51;;;;;;;17.77;13.07;;;9.50;99.90;;;;;;4984843;28;20145;-76
2023/05/06 03:18:16;;;;;;;18.67;13.73;;;9.50;99.90;;;;;;4988341;28;20057;-76
2023/05/06 03:20:43;;;;;;;15.93;12.23;;;9.50;99.90;;;;;;4988749;28;20057;-76
2023/05/06 03:23:08;;;;;;;13.05;11.75;;;9.40;99.90;;;;;;4988393;28;20448;-76
2023/05/06 03:25:34;;;;;;;13.57;11.65;;;9.40;99.90;;;;;;4984341;28;20092;-76
2023/05/06 03:28:00;;;;;;;7.47;6.78;;;9.40;99.90;;;;;;4988228;28;20137;-76
2023/05/06 03:30:26;;;;;;;6.97;6.28;;;9.30;99.90;;;;;;4985962;28;20870;-76
2023/05/06 03:32:54;;;;;;;6.32;5.72;;;9.30;99.90;;;;;;4985874;28;20093;-76
2023/05/06 03:35:20;;;;;;;5.32;4.90;;;9.20;99.90;;;;;;4987896;28;20141;-76
2023/05/06 03:37:45;;;;;;;8.88;6.18;;;9.20;99.90;;;;;;4985298;28;20149;-76
2023/05/06 03:40:11;;;;;;;11.07;8.57;;;9.10;99.90;;;;;;4987942;28;20042;-76
2023/05/06 03:42:37;;;;;;;23.73;9.48;;;9.10;99.90;;;;;;4982159;28;20042;-76
2023/05/06 03:45:04;;;;;;;23.17;8.65;;;9.10;99.90;;;;;;4987882;28;20446;-76
2023/05/06 03:47:30;;;;;;;10.23;7.53;;;9.00;99.90;;;;;;4982287;28;20124;-76
2023/05/06 03:49:56;;;;;;;11.02;6.72;;;8.90;99.90;;;;;;4987618;28;20054;-76
2023/05/06 03:52:22;;;;;;;15.40;7.18;;;8.80;99.90;;;;;;4985338;28;20182;-76
2023/05/06 03:54:48;;;;;;;8.95;7.85;;;8.70;99.90;;;;;;4983564;28;20046;-76
2023/05/06 03:57:14;;;;;;;8.82;6.75;;;8.60;99.90;;;;;;4987580;28;20104;-76
2023/05/06 03:59:39;;;;;;;14.07;8.23;;;8.50;99.90;;;;;;4980432;28;20727;-76
2023/05/06 04:02:05;;;;;;;10.88;8.30;;;8.40;99.90;;;;;;4986114;28;20057;-76
2023/05/06 04:04:30;;;;;;;8.30;7.70;;;8.40;99.90;;;;;;4982918;28;20046;-76
2023/05/06 04:06:56;;;;;;;7.50;6.90;;;8.30;99.90;;;;;;4987454;28;20046;-76
2023/05/06 04:09:22;;;;;;;8.23;7.63;;;8.30;99.90;;;;;;4987404;28;20046;-76
2023/05/06 04:11:47;;;;;;;7.90;7.30;;;8.30;99.90;;;;;;4978142;28;20034;-76
2023/05/06 04:14:13;;;;;;;8.63;7.93;;;8.30;99.90;;;;;;4985656;28;20093;-76
2023/05/06 04:16:39;;;;;;;9.93;9.10;;;8.40;99.90;;;;;;4987445;28;20500;-76
2023/05/06 04:19:05;;;;;;;10.18;9.27;;;8.40;99.90;;;;;;4984872;28;20058;-76
2023/05/06 04:21:31;;;;;;;13.48;12.27;;;8.40;99.90;;;;;;4979341;28;20127;-76
2023/05/06 04:23:57;;;;;;;14.25;13.05;;;8.50;99.90;;;;;;4987691;28;20058;-76
2023/05/06 04:26:23;;;;;;;13.48;12.38;;;8.50;99.90;;;;;;4989839;28;20801;-76
2023/05/06 04:28:49;;;;;;;13.20;12.05;;;8.60;99.90;;;;;;4991472;28;20055;-76
2023/05/06 04:31:15;;;;;;;14.35;13.00;;;8.60;99.90;;;;;;4985048;28;20137;-76
2023/05/06 04:33:41;;;;;;;21.65;14.73;;;8.60;99.90;;;;;;4975532;28;20050;-76
2023/05/06 04:36:07;;;;;;;14.95;13.55;;;8.60;99.90;;;;;;4986940;28;20104;-76
2023/05/06 04:38:34;;;;;;;14.40;13.23;;;8.70;99.90;;;;;;4986670;28;20500;-76
2023/05/06 04:41:00;;;;;;;14.25;13.10;;;8.70;99.90;;;;;;4990850;28;20108;-76
2023/05/06 04:43:26;;;;;;;13.63;12.50;;;8.70;99.90;;;;;;4991132;28;20058;-76
2023/05/06 04:45:53;;;;;;;15.63;14.32;;;8.80;99.90;;;;;;4990610;28;20046;-76
2023/05/06 04:48:22;;;;;;;18.35;16.20;;;8.80;99.90;;;;;;4989709;28;20034;-76
2023/05/06 04:50:49;;;;;;;16.38;14.95;;;8.90;99.90;;;;;;4990151;28;20046;-76
2023/05/06 04:53:16;;;;;;;19.15;17.35;;;9.00;99.90;;;;;;4990987;28;20049;-76
2023/05/06 04:55:42;;;;;;;18.98;17.27;;;9.10;99.90;;;;;;4983655;28;20045;-76
2023/05/06 04:58:08;;;;;;;18.67;16.98;;;9.10;99.90;;;;;;5005345;28;20482;-76
2023/05/06 05:00:34;;;;;;;17.17;15.77;;;9.20;99.90;;;;;;4989193;28;20178;-76
2023/05/06 05:03:01;;;;;;;17.55;15.85;;;9.40;99.90;;;;;;4990099;28;20559;-76
2023/05/06 05:05:27;;;;;;;16.65;15.27;;;9.50;99.90;;;;;;4990783;28;20133;-76
2023/05/06 05:07:53;;;;;;;17.65;15.95;;;9.60;99.90;;;;;;4989651;28;20050;-76
2023/05/06 05:10:19;;;;;;;17.30;15.80;;;9.80;99.90;;;;;;4986627;28;20094;-76
2023/05/06 05:12:45;;;;;;;23.60;16.50;;;9.80;99.90;;;;;;4987989;28;20042;-76
2023/05/06 05:15:11;;;;;;;48.30;15.98;;;10.00;99.90;;;;;;4987520;28;20046;-76
2023/05/06 05:17:37;;;;;;;26.52;17.17;;;10.00;99.90;;;;;;4987668;28;20811;-76
2023/05/06 05:20:04;;;;;;;27.92;15.15;;;9.80;99.90;;;;;;4989492;28;20089;-76
2023/05/06 05:22:30;;;;;;;39.53;15.73;;;9.70;99.90;;;;;;4989935;28;20057;-76
2023/05/06 05:24:56;;;;;;;33.75;17.33;;;9.60;99.90;;;;;;4987850;28;20633;-76
2023/05/06 05:27:22;;;;;;;29.90;15.20;;;9.60;99.90;;;;;;4982130;28;20046;-76
2023/05/06 05:29:48;;;;;;;32.05;16.27;;;9.60;99.90;;;;;;4988394;28;22988;-76
2023/05/06 05:32:14;;;;;;;24.90;15.05;;;9.70;99.90;;;;;;4985483;28;20050;-76
2023/05/06 05:34:39;;;;;;;27.48;16.60;;;9.70;99.90;;;;;;4982830;28;20063;-75
2023/05/06 05:37:05;;;;;;;30.13;15.68;;;9.60;99.90;;;;;;4987259;28;20058;-76
2023/05/06 05:39:31;;;;;;;30.52;17.80;;;9.60;99.90;;;;;;4984264;28;20550;-76
2023/05/06 05:41:56;;;;;;;23.05;17.42;;;9.60;99.90;;;;;;4987526;28;20534;-75
2023/05/06 05:44:22;;;;;;;34.65;18.95;;;9.60;99.90;;;;;;4985131;28;20053;-76
2023/05/06 05:46:48;;;;;;;18.73;16.83;;;9.50;99.90;;;;;;4987183;28;20046;-77
2023/05/06 05:49:14;;;;;;;42.65;19.55;;;9.40;99.90;;;;;;4985845;28;20073;-77
2023/05/06 05:51:39;;;;;;;52.83;23.17;;;9.40;99.90;;;;;;4989445;28;20042;-77
2023/05/06 05:54:05;;;;;;;51.60;24.95;;;9.40;99.90;;;;;;4984660;28;20499;-77
2023/05/06 05:56:30;;;;;;;41.63;23.38;;;9.30;99.90;;;;;;4987627;28;20054;-76
2023/05/06 05:58:56;;;;;;;41.30;28.88;;;9.30;99.90;;;;;;4986495;28;20534;-77
2023/05/06 06:01:22;;;;;;;43.15;25.50;;;9.40;99.90;;;;;;4984797;28;20685;-77
2023/05/06 06:03:47;;;;;;;58.42;31.90;;;9.40;99.90;;;;;;4985667;28;20039;-76
2023/05/06 06:06:13;;;;;;;65.63;32.15;;;9.40;99.90;;;;;;4988371;28;20057;-76
2023/05/06 06:08:39;;;;;;;30.35;26.90;;;9.50;99.90;;;;;;4984507;28;20069;-76
2023/05/06 06:11:05;;;;;;;51.05;30.15;;;9.50;99.90;;;;;;4981482;28;20053;-75
2023/05/06 06:13:31;;;;;;;85.85;34.28;;;9.60;99.90;;;;;;4981803;28;20488;-76
2023/05/06 06:15:56;;;;;;;77.93;33.40;;;9.70;99.90;;;;;;4985818;28;20059;-76
2023/05/06 06:18:23;;;;;;;62.83;32.58;;;9.80;99.90;;;;;;4978804;28;20411;-75
2023/05/06 06:20:48;;;;;;;98.68;38.35;;;9.90;99.90;;;;;;4983444;28;20054;-76
2023/05/06 06:23:14;;;;;;;82.40;36.70;;;9.90;99.90;;;;;;4984853;28;20042;-76
2023/05/06 06:25:40;;;;;;;118.35;39.20;;;10.00;99.90;;;;;;4981143;28;20062;-77
2023/05/06 06:28:06;;;;;;;69.70;35.72;;;10.10;99.90;;;;;;4989068;28;20046;-76
2023/05/06 06:30:32;;;;;;;87.22;41.30;;;10.10;99.90;;;;;;4987652;28;20045;-76
2023/05/06 06:33:00;;;;;;;55.95;39.45;;;10.20;99.90;;;;;;4979515;28;20050;-76
2023/05/06 06:35:26;;;;;;;50.75;34.42;;;10.30;99.90;;;;;;4986635;28;20153;-76
2023/05/06 06:37:53;;;;;;;55.83;34.55;;;10.50;99.90;;;;;;4990137;28;20385;-76
2023/05/06 06:40:20;;;;;;;68.43;41.22;;;10.70;99.90;;;;;;4977788;28;20053;-77
2023/05/06 06:42:46;;;;;;;57.58;40.45;;;10.80;99.90;;;;;;4981468;28;20172;-77
2023/05/06 06:45:13;;;;;;;49.55;40.10;;;11.00;99.90;;;;;;4985165;28;20089;-77
2023/05/06 06:47:39;;;;;;;51.53;42.17;;;11.10;99.90;;;;;;4982035;28;20504;-76
2023/05/06 06:50:07;;;;;;;55.13;42.22;;;11.20;99.90;;;;;;4984104;28;20062;-77
2023/05/06 06:52:33;;;;;;;55.92;40.95;;;11.30;99.90;;;;;;4982248;28;20046;-77
2023/05/06 06:54:59;;;;;;;46.35;37.75;;;11.50;99.90;;;;;;4980003;28;20124;-76
2023/05/06 06:57:25;;;;;;;57.97;44.80;;;11.50;99.90;;;;;;4980591;28;20404;-76
2023/05/06 06:59:52;;;;;;;57.58;43.47;;;11.70;99.90;;;;;;4982160;28;20042;-76
2023/05/06 07:02:19;;;;;;;62.47;47.58;;;11.90;99.90;;;;;;4983401;28;20050;-76
2023/05/06 07:04:45;;;;;;;51.10;41.33;;;12.00;99.90;;;;;;4981821;28;20077;-75
2023/05/06 07:07:12;;;;;;;52.83;40.55;;;12.10;99.90;;;;;;4982197;28;20161;-75
2023/05/06 07:09:43;;;;;;;51.53;40.55;;;12.30;99.90;;;;;;4979559;28;20085;-75
2023/05/06 07:12:09;;;;;;;46.40;38.47;;;12.40;99.90;;;;;;4980106;28;20054;-75
2023/05/06 07:14:34;;;;;;;51.38;39.90;;;12.50;99.90;;;;;;4978386;28;20492;-75
2023/05/06 07:17:01;;;;;;;50.55;37.78;;;12.50;99.90;;;;;;4979186;28;20069;-76
2023/05/06 07:19:28;;;;;;;56.35;40.53;;;12.60;99.90;;;;;;4982890;28;20054;-76
2023/05/06 07:21:54;;;;;;;43.15;34.72;;;12.60;99.90;;;;;;4982666;28;20061;-76
2023/05/06 07:24:19;;;;;;;49.50;37.90;;;12.70;99.90;;;;;;4983622;28;20128;-75
2023/05/06 07:26:46;;;;;;;49.25;37.72;;;12.70;99.90;;;;;;4983995;28;20077;-77
2023/05/06 07:29:12;;;;;;;52.70;37.35;;;12.80;99.90;;;;;;4986694;28;20132;-77
2023/05/06 07:31:37;;;;;;;47.67;36.72;;;12.80;99.90;;;;;;4984495;28;20043;-77
2023/05/06 07:34:03;;;;;;;50.63;37.40;;;12.90;99.90;;;;;;4985033;28;20059;-76
2023/05/06 07:36:34;;;;;;;47.22;37.67;;;12.90;99.90;;;;;;4984355;28;20047;-77
2023/05/06 07:39:00;;;;;;;52.58;38.65;;;13.00;99.90;;;;;;4981766;28;20751;-76
2023/05/06 07:41:26;;;;;;;47.40;36.47;;;13.10;99.90;;;;;;4982403;28;20794;-76
2023/05/06 07:43:51;;;;;;;50.67;38.60;;;13.10;99.90;;;;;;4984160;28;20042;-76
2023/05/06 07:46:17;;;;;;;51.70;37.08;;;13.20;99.90;;;;;;4982706;28;20086;-76
2023/05/06 07:48:45;;;;;;;56.42;41.13;;;13.30;99.90;;;;;;4982555;28;20038;-75
2023/05/06 07:51:11;;;;;;;54.60;42.47;;;13.30;99.90;;;;;;4983317;28;20828;-76
2023/05/06 07:53:38;;;;;;;54.72;42.47;;;13.40;99.90;;;;;;4983728;28;20050;-76
2023/05/06 07:56:06;;;;;;;46.88;36.72;;;13.40;99.90;;;;;;4998437;28;20101;-76
2023/05/06 07:58:31;;;;;;;47.28;36.10;;;13.50;99.90;;;;;;4982527;28;20050;-76
2023/05/06 08:00:59;;;;;;;48.42;37.58;;;13.50;99.90;;;;;;4979505;28;20057;-76
2023/05/06 08:03:25;;;;;;;42.90;33.67;;;13.60;99.90;;;;;;4982346;28;20511;-76
2023/05/06 08:05:51;;;;;;;48.85;36.22;;;13.60;99.90;;;;;;4981755;28;20050;-76
2023/05/06 08:08:18;;;;;;;47.13;36.72;;;13.70;99.90;;;;;;4984475;28;20042;-76
2023/05/06 08:10:44;;;;;;;48.13;35.47;;;13.80;99.90;;;;;;4983517;28;20384;-77
2023/05/06 08:13:10;;;;;;;43.05;35.17;;;13.80;99.90;;;;;;4981505;28;20567;-76
2023/05/06 08:15:37;;;;;;;47.40;36.30;;;13.80;99.90;;;;;;4980455;28;20105;-75
2023/05/06 08:18:03;;;;;;;40.40;33.20;;;13.90;99.90;;;;;;4983704;28;20402;-75
2023/05/06 08:20:29;;;;;;;43.60;34.10;;;14.00;99.90;;;;;;4984218;28;20384;-78
2023/05/06 08:22:54;;;;;;;43.92;34.03;;;14.00;99.90;;;;;;4976532;28;20097;-76
2023/05/06 08:25:20;;;;;;;49.53;35.25;;;14.10;99.90;;;;;;4973471;28;20050;-77
2023/05/06 08:27:46;;;;;;;45.85;34.42;;;14.20;99.90;;;;;;4977290;28;20050;-77
2023/05/06 08:30:12;;;;;;;44.95;34.45;;;14.30;99.90;;;;;;4986085;28;20066;-77
2023/05/06 08:32:38;;;;;;;43.28;37.00;;;14.60;99.90;;;;;;4970612;28;20050;-77
2023/05/06 08:35:06;;;;;;;40.85;34.65;;;14.90;99.90;;;;;;4977009;28;20121;-78
2023/05/06 08:37:31;;;;;;;39.33;33.03;;;15.10;99.90;;;;;;4985356;28;20058;-78
2023/05/06 08:39:57;;;;;;;36.72;31.98;;;15.40;99.90;;;;;;4983836;28;20062;-78
2023/05/06 08:42:24;;;;;;;47.17;31.73;;;15.60;99.90;;;;;;4980940;28;20165;-77
2023/05/06 08:44:51;;;;;;;40.20;31.73;;;15.80;99.90;;;;;;4982834;28;20104;-77
2023/05/06 08:47:19;;;;;;;41.17;32.97;;;15.90;99.90;;;;;;4987309;28;20398;-77
2023/05/06 08:49:45;;;;;;;34.97;29.88;;;16.10;99.90;;;;;;4985131;28;20440;-76
2023/05/06 08:52:11;;;;;;;39.22;29.65;;;16.30;99.90;;;;;;4984700;28;20050;-77
2023/05/06 08:54:37;;;;;;;37.38;29.17;;;16.50;99.90;;;;;;4986900;28;20054;-77
2023/05/06 08:57:05;;;;;;;40.92;31.55;;;16.70;99.90;;;;;;4982628;28;20044;-76
2023/05/06 08:59:32;;;;;;;33.40;28.03;;;16.70;99.90;;;;;;4978511;28;20082;-77
2023/05/06 09:02:03;;;;;;;36.15;29.20;;;16.80;99.90;;;;;;4974018;28;20309;-77
2023/05/06 09:04:29;;;;;;;34.35;27.20;;;16.90;99.90;;;;;;4987156;28;20089;-77
2023/05/06 09:06:57;;;;;;;34.88;27.30;;;16.90;99.90;;;;;;4984513;28;20125;-78
2023/05/06 09:09:22;;;;;;;29.87;26.60;;;17.20;99.90;;;;;;4985540;28;20070;-77
2023/05/06 09:11:54;;;;;;;33.72;27.63;;;17.40;99.90;;;;;;4989744;28;20077;-78
2023/05/06 09:14:20;;;;;;;37.28;28.15;;;17.50;99.90;;;;;;4978539;28;20057;-78
2023/05/06 09:16:48;;;;;;;36.17;29.55;;;17.50;99.90;;;;;;4983617;28;20734;-78
2023/05/06 09:19:15;;;;;;;;;;;17.60;99.90;;;;;;4986599;28;20046;-78
2023/05/06 09:21:46;;;;;;;33.05;26.35;;;17.60;99.90;;;;;;4987401;28;19932;-78
2023/05/06 09:24:13;;;;;;;34.95;25.63;;;17.80;99.90;;;;;;4969678;28;20049;-77
2023/05/06 09:26:41;;;;;;;37.97;30.35;;;18.00;99.90;;;;;;4987592;28;20510;-78
2023/05/06 09:29:06;;;;;;;30.30;23.90;;;18.10;99.90;;;;;;4980215;28;20047;-77
2023/05/06 09:31:38;;;;;;;26.75;22.52;;;18.20;99.90;;;;;;4987608;28;20677;-77
2023/05/06 09:34:04;;;;;;;30.25;25.70;;;18.40;99.90;;;;;;4990285;28;20066;-75
2023/05/06 09:36:30;;;;;;;38.72;25.27;;;18.60;99.90;;;;;;4986389;28;20073;-76
2023/05/06 09:38:56;;;;;;;27.85;22.33;;;18.80;99.90;;;;;;4984157;28;20055;-75
2023/05/06 09:41:24;;;;;;;31.92;24.20;;;18.90;99.90;;;;;;4987815;28;20054;-76
2023/05/06 09:43:52;;;;;;;26.75;19.73;;;18.80;99.90;;;;;;4983457;28;20499;-70
2023/05/06 09:46:19;;;;;;;35.40;25.17;;;18.80;99.90;;;;;;4987939;28;20095;-73
2023/05/06 09:48:46;;;;;;;36.20;27.80;;;18.70;99.90;;;;;;4988556;28;20093;-70
2023/05/06 09:51:13;;;;;;;33.70;25.67;;;18.60;99.90;;;;;;4989469;28;20110;-70
2023/05/06 09:53:39;;;;;;;31.95;23.70;;;18.60;99.90;;;;;;4989430;28;20050;-70
2023/05/06 09:56:06;;;;;;;31.45;22.75;;;18.80;99.90;;;;;;4989123;28;20051;-70
2023/05/06 09:58:33;;;;;;;29.40;21.33;;;19.00;99.90;;;;;;4987353;28;20048;-70
2023/05/06 10:01:00;;;;;;;31.02;21.38;;;19.00;99.90;;;;;;4986686;28;20050;-70
2023/05/06 10:03:26;;;;;;;32.33;17.95;;;19.00;99.90;;;;;;4986225;28;20477;-70
2023/05/06 10:05:56;;;;;;;24.05;18.08;;;19.00;99.90;;;;;;4983212;28;20072;-70
2023/05/06 10:08:25;;;;;;;25.63;17.65;;;19.00;99.90;;;;;;4983696;28;20061;-70
2023/05/06 10:10:52;;;;;;;25.95;18.52;;;18.90;99.90;;;;;;4988016;28;20049;-70
2023/05/06 10:13:25;;;;;;;28.73;17.95;;;18.80;99.90;;;;;;4989107;28;20042;-70
2023/05/06 10:15:51;;;;;;;25.83;16.58;;;18.90;99.90;;;;;;4983478;28;20579;-70
2023/05/06 10:18:19;;;;;;;27.95;19.83;;;19.00;99.90;;;;;;4988766;28;20050;-70
2023/05/06 10:20:46;;;;;;;33.75;21.85;;;19.00;99.90;;;;;;4986695;28;20046;-70
2023/05/06 10:23:28;;;;;;;37.25;24.77;;;19.00;99.90;;;;;;4988566;28;20058;-70
2023/05/06 10:26:08;;;;;;;34.90;23.92;;;18.90;99.90;;;;;;4988563;28;20706;-70
2023/05/06 10:28:40;;;;;;;38.03;24.30;;;18.90;99.90;;;;;;4979032;28;20050;-70
2023/05/06 10:31:14;;;;;;;37.47;25.35;;;18.80;99.90;;;;;;4986324;28;20129;-70
2023/05/06 10:33:53;;;;;;;36.58;25.17;;;18.70;99.90;;;;;;4987770;28;20535;-70
2023/05/06 10:36:30;;;;;;;39.20;26.95;;;18.70;99.90;;;;;;4988208;28;20061;-70
2023/05/06 10:38:59;;;;;;;38.95;27.02;;;18.60;99.90;;;;;;4990919;28;20153;-70
2023/05/06 10:41:27;;;;;;;48.00;28.75;;;18.50;99.90;;;;;;4977289;28;20046;-70
2023/05/06 10:43:58;;;;;;;40.15;26.88;;;18.50;99.90;;;;;;4985011;28;20103;-70
2023/05/06 10:46:25;;;;;;;36.38;25.65;;;18.40;99.90;;;;;;4981065;28;20121;-69
2023/05/06 10:49:03;;;;;;;43.30;27.88;;;18.30;99.90;;;;;;4980918;28;20049;-69
2023/05/06 10:51:30;;;;;;;;;;;18.30;99.90;;;;;;4992737;28;20066;-70
2023/05/06 10:54:09;;;;;;;39.93;25.97;;;18.30;99.90;;;;;;4990393;28;19930;-70
2023/05/06 10:56:37;;;;;;;34.50;25.02;;;18.30;99.90;;;;;;4979496;28;20420;-70
2023/05/06 10:59:09;;;;;;;37.42;25.60;;;18.30;99.90;;;;;;4981348;28;20049;-70
2023/05/06 11:01:39;;;;;;;44.17;24.73;;;18.40;99.90;;;;;;4989862;28;20045;-70
2023/05/06 11:04:17;;;;;;;33.28;23.80;;;18.40;99.90;;;;;;4990028;28;20046;-70
2023/05/06 11:06:51;;;;;;;35.20;23.95;;;18.50;99.90;;;;;;4989360;28;20681;-70
2023/05/06 11:09:22;;;;;;;38.08;24.38;;;18.60;99.90;;;;;;4987897;28;20470;-69
2023/05/06 11:12:08;;;;;;;34.85;24.40;;;18.60;99.90;;;;;;4989847;28;20502;-69
2023/05/06 11:14:37;;;;;;;38.33;25.52;;;18.70;99.90;;;;;;4988631;28;20081;-70
2023/05/06 11:17:08;;;;;;;43.55;27.83;;;18.80;99.90;;;;;;4989900;28;20058;-70
2023/05/06 11:19:36;;;;;;;33.88;25.85;;;19.00;99.90;;;;;;4989670;28;20046;-69
2023/05/06 11:22:02;;;;;;;;;;;19.10;99.90;;;;;;4986496;28;20079;-70
2023/05/06 11:24:37;;;;;;;32.67;24.90;;;19.30;99.90;;;;;;4977995;28;20398;-70
2023/05/06 11:27:04;;;;;;;29.70;24.40;;;19.40;99.90;;;;;;4979691;28;20497;-69
2023/05/06 11:29:30;;;;;;;28.88;23.10;;;19.50;99.90;;;;;;4988733;28;20054;-70
2023/05/06 11:31:56;;;;;;;33.72;24.88;;;19.50;99.90;;;;;;4981557;28;20057;-70
2023/05/06 11:34:31;;;;;;;29.17;22.05;;;19.30;99.90;;;;;;4976315;28;20128;-69
2023/05/06 11:37:04;;;;;;;33.53;23.42;;;19.30;99.90;;;;;;4984256;28;20694;-70
2023/05/06 11:39:32;;;;;;;29.92;20.10;;;19.20;99.90;;;;;;4986093;28;20046;-70
2023/05/06 11:42:07;;;;;;;25.70;21.63;;;19.20;99.90;;;;;;4989100;28;20058;-70
2023/05/06 11:44:36;;;;;;;22.75;19.77;;;19.10;99.90;;;;;;4988069;28;20050;-70
2023/05/06 11:47:04;;;;;;;24.00;20.13;;;19.10;99.90;;;;;;4988372;28;20431;-70
2023/05/06 11:49:41;;;;;;;32.90;21.30;;;18.90;99.90;;;;;;4989005;28;20034;-70
2023/05/06 11:52:11;;;;;;;24.48;20.48;;;18.80;99.90;;;;;;4979972;28;20053;-70
2023/05/06 11:54:41;;;;;;;26.25;21.17;;;18.60;99.90;;;;;;4988185;28;20046;-70
2023/05/06 11:57:07;;;;;;;30.13;21.10;;;18.50;99.90;;;;;;4982403;28;20062;-70
2023/05/06 11:59:36;;;;;;;29.98;21.27;;;18.40;99.90;;;;;;4984311;28;20117;-70
2023/05/06 12:02:05;;;;;;;28.90;21.20;;;18.30;99.90;;;;;;4981679;28;20042;-70
2023/05/06 12:04:41;;;;;;;26.25;22.35;;;18.30;99.90;;;;;;4982406;28;20066;-70
2023/05/06 12:07:09;;;;;;;28.48;24.13;;;18.30;99.90;;;;;;4987333;28;20055;-70
2023/05/06 12:09:36;;;;;;;29.75;23.13;;;18.40;99.90;;;;;;4979922;28;20057;-69
2023/05/06 12:12:03;;;;;;;35.80;24.90;;;18.50;99.90;;;;;;4979078;28;20525;-70
2023/05/06 12:14:29;;;;;;;37.05;23.33;;;18.60;99.90;;;;;;4983381;28;20637;-70
2023/05/06 12:16:55;;;;;;;29.88;24.00;;;18.70;99.90;;;;;;4986911;28;20058;-70
2023/05/06 12:19:21;;;;;;;32.78;23.33;;;18.70;99.90;;;;;;4987643;28;20843;-70
2023/05/06 12:21:47;;;;;;;33.97;25.88;;;18.70;99.90;;;;;;4987034;28;20042;-70
2023/05/06 12:24:13;;;;;;;34.53;26.38;;;18.80;99.90;;;;;;4983003;28;20050;-70
2023/05/06 12:26:48;;;;;;;33.10;26.67;;;18.80;99.90;;;;;;4983970;28;20051;-70
2023/05/06 12:29:17;;;;;;;32.17;26.98;;;18.80;99.90;;;;;;4988366;28;20558;-70
2023/05/06 12:31:45;;;;;;;36.22;26.67;;;18.70;99.90;;;;;;4987597;28;20038;-70
2023/05/06 12:34:16;;;;;;;32.60;25.13;;;18.60;99.90;;;;;;4989215;28;20120;-70